sensor_id;sensor_type;location;lat;lon;timestamp;temperature;humidity
12374;DHT22;6251;51.762;8.660;2023-05-02T01:08:45;11.60;99.90
12374;DHT22;6251;51.762;8.660;2023-05-02T02:50:58;11.20;99.90
12374;DHT22;6251;51.762;8.660;2023-05-02T04:02:32;10.80;99.90
12374;DHT22;6251;51.762;8.660;2023-05-02T04:12:32;10.80;99.90
12374;DHT22;6251;51.762;8.660;2023-05-02T04:22:33;10.70;99.90
12374;DHT22;6251;51.762;8.660;2023-05-02T04:32:34;10.60;99.90
12374;DHT22;6251;51.762;8.660;2023-05-02T04:42:34;10.40;99.90
12374;DHT22;6251;51.762;8.660;2023-05-02T04:52:35;10.40;99.90
12374;DHT22;6251;51.762;8.660;2023-05-02T05:02:36;10.40;99.90
12374;DHT22;6251;51.762;8.660;2023-05-02T05:12:38;10.50;99.90
12374;DHT22;6251;51.762;8.660;2023-05-02T05:22:39;10.60;99.90
12374;DHT22;6251;51.762;8.660;2023-05-02T05:32:40;10.50;99.90
12374;DHT22;6251;51.762;8.660;2023-05-02T05:42:41;10.40;99.90
12374;DHT22;6251;51.762;8.660;2023-05-02T05:52:42;10.30;99.90
12374;DHT22;6251;51.762;8.660;2023-05-02T06:02:42;10.30;99.90
12374;DHT22;6251;51.762;8.660;2023-05-02T06:12:43;10.40;99.90
12374;DHT22;6251;51.762;8.660;2023-05-02T06:22:44;10.40;99.90
12374;DHT22;6251;51.762;8.660;2023-05-02T06:32:44;10.20;99.90
12374;DHT22;6251;51.762;8.660;2023-05-02T06:42:45;10.10;99.90
12374;DHT22;6251;51.762;8.660;2023-05-02T06:52:46;10.20;99.90
12374;DHT22;6251;51.762;8.660;2023-05-02T07:02:48;10.20;99.90
12374;DHT22;6251;51.762;8.660;2023-05-02T07:12:48;10.10;99.90
12374;DHT22;6251;51.762;8.660;2023-05-02T07:22:49;9.40;99.90
12374;DHT22;6251;51.762;8.660;2023-05-02T07:32:50;9.00;99.90
12374;DHT22;6251;51.762;8.660;2023-05-02T07:42:51;8.80;99.90
12374;DHT22;6251;51.762;8.660;2023-05-02T07:52:53;9.10;99.90
12374;DHT22;6251;51.762;8.660;2023-05-02T08:02:54;9.40;99.90
12374;DHT22;6251;51.762;8.660;2023-05-02T08:12:54;9.10;99.90
12374;DHT22;6251;51.762;8.660;2023-05-02T08:22:55;8.90;99.90
12374;DHT22;6251;51.762;8.660;2023-05-02T08:32:56;8.80;99.90
12374;DHT22;6251;51.762;8.660;2023-05-02T08:42:56;8.90;99.90
12374;DHT22;6251;51.762;8.660;2023-05-02T08:52:58;9.10;99.90
12374;DHT22;6251;51.762;8.660;2023-05-02T09:03:20;9.00;99.90
12374;DHT22;6251;51.762;8.660;2023-05-02T09:13:31;9.10;99.90
12374;DHT22;6251;51.762;8.660;2023-05-02T09:23:33;9.00;99.90
12374;DHT22;6251;51.762;8.660;2023-05-02T09:33:34;9.10;99.90
12374;DHT22;6251;51.762;8.660;2023-05-02T09:43:36;8.90;99.90
12374;DHT22;6251;51.762;8.660;2023-05-02T09:53:42;9.20;99.90
12374;DHT22;6251;51.762;8.660;2023-05-02T10:03:46;9.20;99.90
12374;DHT22;6251;51.762;8.660;2023-05-02T10:13:47;9.40;99.90
12374;DHT22;6251;51.762;8.660;2023-05-02T10:23:48;9.50;99.90
12374;DHT22;6251;51.762;8.660;2023-05-02T10:33:54;9.90;99.90
12374;DHT22;6251;51.762;8.660;2023-05-02T10:43:55;10.70;99.90
12374;DHT22;6251;51.762;8.660;2023-05-02T10:54:19;10.90;99.90
12374;DHT22;6251;51.762;8.660;2023-05-02T11:04:19;10.60;99.90
12374;DHT22;6251;51.762;8.660;2023-05-02T11:24:41;10.20;99.90
12374;DHT22;6251;51.762;8.660;2023-05-02T11:34:44;10.20;99.90
12374;DHT22;6251;51.762;8.660;2023-05-02T11:44:58;10.20;99.90
12374;DHT22;6251;51.762;8.660;2023-05-02T11:54:59;10.60;99.90
12374;DHT22;6251;51.762;8.660;2023-05-02T12:05:01;10.60;99.90
12374;DHT22;6251;51.762;8.660;2023-05-02T12:15:05;10.70;99.90
12374;DHT22;6251;51.762;8.660;2023-05-02T12:25:07;10.80;99.90
12374;DHT22;6251;51.762;8.660;2023-05-02T12:35:20;11.00;99.90
12374;DHT22;6251;51.762;8.660;2023-05-02T12:45:22;11.40;99.90
12374;DHT22;6251;51.762;8.660;2023-05-02T12:55:24;11.30;99.90
12374;DHT22;6251;51.762;8.660;2023-05-02T13:05:30;11.50;99.90
12374;DHT22;6251;51.762;8.660;2023-05-02T13:15:30;11.10;99.90
12374;DHT22;6251;51.762;8.660;2023-05-02T13:25:31;10.90;99.90
12374;DHT22;6251;51.762;8.660;2023-05-02T13:35:31;11.00;99.90
12374;DHT22;6251;51.762;8.660;2023-05-02T13:45:32;11.90;99.90
12374;DHT22;6251;51.762;8.660;2023-05-02T13:55:33;12.10;98.50
12374;DHT22;6251;51.762;8.660;2023-05-02T14:05:34;12.00;97.90
12374;DHT22;6251;51.762;8.660;2023-05-02T14:15:36;12.10;97.90
12374;DHT22;6251;51.762;8.660;2023-05-02T14:25:37;12.50;97.10
12374;DHT22;6251;51.762;8.660;2023-05-02T14:35:37;13.00;94.80
12374;DHT22;6251;51.762;8.660;2023-05-02T14:45:38;13.00;94.10
12374;DHT22;6251;51.762;8.660;2023-05-02T14:55:39;13.10;93.70
12374;DHT22;6251;51.762;8.660;2023-05-02T15:05:39;13.60;92.50
12374;DHT22;6251;51.762;8.660;2023-05-02T15:15:41;13.40;91.60
12374;DHT22;6251;51.762;8.660;2023-05-02T15:25:41;14.10;93.50
12374;DHT22;6251;51.762;8.660;2023-05-02T15:35:55;14.30;88.90
12374;DHT22;6251;51.762;8.660;2023-05-02T15:45:58;13.40;90.10
12374;DHT22;6251;51.762;8.660;2023-05-02T15:55:59;13.20;91.60
12374;DHT22;6251;51.762;8.660;2023-05-02T16:06:00;13.60;90.20
12374;DHT22;6251;51.762;8.660;2023-05-02T16:16:00;15.30;87.00
12374;DHT22;6251;51.762;8.660;2023-05-02T16:26:01;17.10;78.90
12374;DHT22;6251;51.762;8.660;2023-05-02T16:36:03;15.10;78.90
12374;DHT22;6251;51.762;8.660;2023-05-02T16:46:05;13.80;86.50
12374;DHT22;6251;51.762;8.660;2023-05-02T16:56:06;13.40;86.70
12374;DHT22;6251;51.762;8.660;2023-05-02T17:06:07;13.40;90.20
12374;DHT22;6251;51.762;8.660;2023-05-02T17:16:08;13.10;88.60
12374;DHT22;6251;51.762;8.660;2023-05-02T17:26:09;12.70;87.10
12374;DHT22;6251;51.762;8.660;2023-05-02T17:36:15;11.90;87.40
12374;DHT22;6251;51.762;8.660;2023-05-02T17:46:16;11.30;88.00
12374;DHT22;6251;51.762;8.660;2023-05-02T17:56:16;11.00;91.70
12374;DHT22;6251;51.762;8.660;2023-05-02T18:06:18;10.90;90.00
12374;DHT22;6251;51.762;8.660;2023-05-02T18:16:18;10.90;93.40
12374;DHT22;6251;51.762;8.660;2023-05-02T18:26:19;10.90;94.80
12374;DHT22;6251;51.762;8.660;2023-05-02T18:36:27;10.70;93.70
12374;DHT22;6251;51.762;8.660;2023-05-02T18:46:28;10.50;94.40
12374;DHT22;6251;51.762;8.660;2023-05-02T18:56:28;10.30;95.20
12374;DHT22;6251;51.762;8.660;2023-05-02T19:06:29;10.10;94.10
12374;DHT22;6251;51.762;8.660;2023-05-02T19:16:30;9.80;96.00
12374;DHT22;6251;51.762;8.660;2023-05-02T19:26:32;9.70;94.90
12374;DHT22;6251;51.762;8.660;2023-05-02T19:36:33;9.50;95.70
12374;DHT22;6251;51.762;8.660;2023-05-02T19:46:34;9.30;96.40
12374;DHT22;6251;51.762;8.660;2023-05-02T19:56:34;9.20;96.50
12374;DHT22;6251;51.762;8.660;2023-05-02T20:06:35;9.00;96.60
12374;DHT22;6251;51.762;8.660;2023-05-02T20:16:36;8.80;98.20
12374;DHT22;6251;51.762;8.660;2023-05-02T20:26:36;8.60;99.30
12374;DHT22;6251;51.762;8.660;2023-05-02T20:36:37;8.30;99.90
12374;DHT22;6251;51.762;8.660;2023-05-02T20:46:38;8.00;99.90
12374;DHT22;6251;51.762;8.660;2023-05-02T20:56:38;7.60;99.90
12374;DHT22;6251;51.762;8.660;2023-05-02T23:08:43;5.10;99.90
